Time;durP1;ratioP1;P1;durP2;ratioP2;P2;SDS_P1;SDS_P2;PMS_P1;PMS_P2;Temp;Humidity;BMP_temperature;BMP_pressure;BME280_temperature;BME280_humidity;BME280_pressure;Samples;Min_cycle;Max_cycle;Signal;HPM_P1;HPM_P2
2022/08/29 00:01:34;;;;;;;11.75;3.50;;;;;;;22.64;100.00;99133.41;5123396;28;20066;-93
2022/08/29 00:04:00;;;;;;;10.48;3.00;;;;;;;23.79;100.00;99142.22;5122698;27;20031;-92
2022/08/29 00:06:26;;;;;;;8.45;3.45;;;;;;;23.98;100.00;99143.84;5105370;28;20031;-92
2022/08/29 00:08:52;;;;;;;8.60;3.20;;;;;;;23.79;100.00;99144.03;5105404;28;20023;-93
2022/08/29 00:11:17;;;;;;;10.98;3.35;;;;;;;22.98;100.00;99135.13;5106318;28;20368;-95
2022/08/29 00:13:43;;;;;;;10.63;3.22;;;;;;;23.15;100.00;99141.38;5104211;28;20039;-95
2022/08/29 00:16:09;;;;;;;9.68;3.20;;;;;;;22.46;100.00;99140.53;5098192;28;20375;-93
2022/08/29 00:18:35;;;;;;;11.82;3.38;;;;;;;22.61;100.00;99141.56;5102731;28;20069;-95
2022/08/29 00:21:01;;;;;;;7.68;2.88;;;;;;;22.26;100.00;99131.78;5106807;28;20108;-91
2022/08/29 00:23:27;;;;;;;9.93;2.90;;;;;;;22.64;100.00;99141.38;5103273;28;20028;-90
2022/08/29 00:25:52;;;;;;;7.72;2.40;;;;;;;22.45;100.00;99138.81;5101971;28;20057;-92
2022/08/29 00:28:18;;;;;;;9.77;2.50;;;;;;;22.82;100.00;99135.06;5098377;28;20031;-92
2022/08/29 00:30:44;;;;;;;9.82;2.50;;;;;;;22.71;100.00;99144.59;5099193;27;20080;-91
2022/08/29 00:33:09;;;;;;;11.25;2.78;;;;;;;22.83;100.00;99138.63;5104805;28;20138;-90
2022/08/29 00:35:37;;;;;;;8.02;2.15;;;;;;;23.03;100.00;99142.84;5099182;28;20039;-90
2022/08/29 00:38:05;;;;;;;7.55;2.35;;;;;;;23.61;100.00;99145.94;5097415;28;20075;-92
2022/08/29 00:40:47;;;;;;;8.50;2.42;;;;;;;23.40;100.00;99146.19;5099953;28;20148;-91
2022/08/29 00:43:13;;;;;;;7.25;2.30;;;;;;;23.18;100.00;99152.69;5099821;28;20034;-92
2022/08/29 00:46:10;;;;;;;9.15;2.20;;;;;;;22.47;100.00;99144.94;5102485;28;20116;-92
2022/08/29 00:48:38;;;;;;;7.32;2.40;;;;;;;22.90;100.00;99147.13;5088902;28;20043;-92
2022/08/29 00:51:07;;;;;;;7.40;2.22;;;;;;;22.33;100.00;99143.84;5087122;28;20384;-92
2022/08/29 00:53:37;;;;;;;8.40;2.63;;;;;;;22.83;100.00;99144.78;5101340;28;20149;-92
2022/08/29 00:56:05;;;;;;;8.48;2.28;;;;;;;22.54;100.00;99135.69;5087080;28;20078;-92
2022/08/29 00:58:36;;;;;;;7.70;2.50;;;;;;;22.70;100.00;99138.41;5103233;28;20019;-92
2022/08/29 01:01:03;;;;;;;9.68;2.58;;;;;;;24.06;100.00;99146.06;5078927;28;20031;-92
2022/08/29 01:03:32;;;;;;;6.88;2.22;;;;;;;23.95;100.00;99142.22;5087376;28;20023;-92
2022/08/29 01:05:59;;;;;;;7.40;2.40;;;;;;;22.68;100.00;99140.28;5087048;28;21740;-92
2022/08/29 01:08:25;;;;;;;8.02;2.70;;;;;;;23.12;100.00;99146.88;5088453;28;20031;-91
2022/08/29 01:13:38;;;;;;;9.93;4.13;;;;;;;22.96;100.00;99141.47;5102629;28;20078;-93
2022/08/29 01:16:05;;;;;;;12.50;4.20;;;;;;;22.92;100.00;99139.91;5083365;28;20502;-93
2022/08/29 01:18:33;;;;;;;11.10;4.63;;;;;;;23.12;100.00;99150.38;5101040;28;20084;-93
2022/08/29 01:21:20;;;;;;;11.38;5.03;;;;;;;22.49;100.00;99146.56;5077311;27;20118;-92
2022/08/29 01:24:11;;;;;;;11.23;4.57;;;;;;;22.52;100.00;99147.34;5076540;28;20028;-92
2022/08/29 01:26:37;;;;;;;12.38;4.80;;;;;;;22.90;100.00;99153.28;5094479;27;20024;-92
2022/08/29 01:29:03;;;;;;;12.13;5.30;;;;;;;22.86;100.00;99158.88;5099077;28;20047;-92
2022/08/29 01:31:41;;;;;;;11.40;4.95;;;;;;;22.54;100.00;99153.44;5099021;27;20052;-92
2022/08/29 01:34:07;;;;;;;11.35;5.47;;;;;;;22.22;100.00;99156.78;5075866;28;20020;-92
2022/08/29 01:37:01;;;;;;;10.25;5.20;;;;;;;22.21;100.00;99148.88;5085308;28;20060;-93
2022/08/29 01:39:30;;;;;;;12.40;5.70;;;;;;;22.21;100.00;99156.84;5066794;28;20043;-92
2022/08/29 01:41:57;;;;;;;13.10;5.50;;;;;;;22.16;100.00;99149.97;5079510;28;20040;-93
2022/08/29 01:44:26;;;;;;;13.98;6.07;;;;;;;22.35;100.00;99157.03;5078319;28;20027;-93
2022/08/29 01:46:55;;;;;;;11.80;6.22;;;;;;;22.05;100.00;99154.13;5080477;28;20076;-89
2022/08/29 01:49:22;;;;;;;14.10;5.75;;;;;;;22.19;100.00;99156.09;5104310;28;20020;-93
2022/08/29 01:51:48;;;;;;;12.00;5.75;;;;;;;22.90;100.00;99155.13;5078935;28;20110;-92
2022/08/29 01:54:15;;;;;;;11.80;6.00;;;;;;;22.08;100.00;99160.13;5085057;28;20148;-92
2022/08/29 01:56:45;;;;;;;14.90;5.68;;;;;;;22.44;100.00;99156.56;5096686;28;20057;-92
2022/08/29 01:59:13;;;;;;;13.13;5.32;;;;;;;22.73;100.00;99161.31;5094892;28;20106;-92
2022/08/29 02:01:43;;;;;;;12.18;4.97;;;;;;;22.26;100.00;99163.66;5093833;28;20028;-91
2022/08/29 02:04:09;;;;;;;12.23;4.82;;;;;;;22.15;100.00;99158.88;5099438;28;20032;-94
2022/08/29 02:06:35;;;;;;;11.20;4.05;;;;;;;21.65;100.00;99156.94;5096871;28;20035;-91
2022/08/29 02:09:01;;;;;;;10.65;3.88;;;;;;;21.71;100.00;99154.00;5095463;28;20058;-91
2022/08/29 02:11:27;;;;;;;7.93;2.80;;;;;;;22.47;100.00;99153.75;5089516;28;20039;-93
2022/08/29 02:13:55;;;;;;;8.20;3.30;;;;;;;22.80;100.00;99157.41;5101517;28;20031;-90
2022/08/29 02:16:23;;;;;;;8.27;3.20;;;;;;;22.99;100.00;99162.56;5095522;28;20028;-90
2022/08/29 02:18:49;;;;;;;8.20;2.97;;;;;;;22.19;100.00;99156.09;5098746;28;20030;-90
2022/08/29 02:21:17;;;;;;;8.55;2.90;;;;;;;22.34;100.00;99152.69;5096759;28;20047;-91
2022/08/29 02:23:43;;;;;;;7.53;3.00;;;;;;;22.45;100.00;99154.75;5103958;28;20055;-90
2022/08/29 02:26:09;;;;;;;9.40;2.97;;;;;;;22.61;100.00;99153.03;5101345;28;20197;-90
2022/08/29 02:28:37;;;;;;;8.90;3.08;;;;;;;22.56;100.00;99154.22;5099598;28;20096;-91
2022/08/29 02:31:04;;;;;;;9.77;3.13;;;;;;;22.97;100.00;99160.00;5097633;28;20039;-90
2022/08/29 02:33:30;;;;;;;11.80;3.30;;;;;;;23.18;100.00;99163.31;5101310;28;20031;-90
2022/08/29 02:35:57;;;;;;;11.15;4.30;;;;;;;22.27;100.00;99156.56;5095541;28;20031;-92
2022/08/29 02:38:22;;;;;;;9.43;3.90;;;;;;;22.08;100.00;99152.16;5100191;28;20135;-90
2022/08/29 02:40:49;;;;;;;10.38;3.70;;;;;;;22.75;100.00;99156.78;5101938;28;20739;-91
2022/08/29 02:43:17;;;;;;;9.20;4.00;;;;;;;22.86;100.00;99157.06;5125721;27;20038;-91
2022/08/29 02:45:44;;;;;;;11.95;4.75;;;;;;;23.60;100.00;99153.03;5102338;28;20035;-90
2022/08/29 02:48:11;;;;;;;11.00;5.40;;;;;;;22.68;100.00;99151.75;5098067;28;20035;-91
2022/08/29 02:50:43;;;;;;;14.27;6.47;;;;;;;23.21;100.00;99156.97;5103705;28;20069;-92
2022/08/29 02:53:10;;;;;;;12.27;6.00;;;;;;;22.74;100.00;99155.94;5098539;28;20034;-91
2022/08/29 02:55:36;;;;;;;14.88;5.97;;;;;;;22.57;100.00;99155.94;5097777;28;20062;-91
2022/08/29 02:58:02;;;;;;;16.17;6.53;;;;;;;23.14;100.00;99158.25;5079549;28;20935;-91
2022/08/29 03:00:27;;;;;;;12.45;6.22;;;;;;;23.24;100.00;99162.13;5081319;28;20122;-91
2022/08/29 03:02:54;;;;;;;15.18;6.90;;;;;;;22.99;100.00;99160.78;5084343;28;20518;-90
2022/08/29 03:05:26;;;;;;;13.77;6.13;;;;;;;22.70;100.00;99158.81;5092195;28;20751;-91
2022/08/29 03:07:55;;;;;;;13.45;5.72;;;;;;;23.09;100.00;99169.13;5079535;28;20127;-93
2022/08/29 03:10:21;;;;;;;16.05;5.47;;;;;;;22.43;100.00;99160.16;5092355;28;20463;-91
2022/08/29 03:12:48;;;;;;;15.13;5.40;;;;;;;22.58;100.00;99161.19;5087232;28;20084;-91
2022/08/29 03:15:14;;;;;;;11.80;5.50;;;;;;;22.61;100.00;99161.00;5084196;28;20027;-91
2022/08/29 03:17:40;;;;;;;11.85;5.45;;;;;;;22.51;100.00;99162.44;5099909;28;20116;-91
2022/08/29 03:20:08;;;;;;;14.95;5.80;;;;;;;23.28;100.00;99169.00;5081736;28;20535;-91
2022/08/29 03:22:36;;;;;;;12.55;5.93;;;;;;;23.44;100.00;99171.69;5079175;28;20081;-92
2022/08/29 03:25:03;;;;;;;11.00;5.60;;;;;;;23.02;100.00;99167.75;5103634;28;20738;-92
2022/08/29 03:27:30;;;;;;;12.38;6.00;;;;;;;22.75;100.00;99162.94;5084471;28;20031;-91
2022/08/29 03:29:56;;;;;;;13.20;6.07;;;;;;;23.22;100.00;99164.03;5087767;28;20052;-92
2022/08/29 03:32:22;;;;;;;12.18;5.68;;;;;;;23.22;100.00;99172.00;5096133;28;20261;-92
2022/08/29 03:34:47;;;;;;;13.77;5.88;;;;;;;23.28;100.00;99174.31;5081625;28;20960;-92
2022/08/29 03:37:13;;;;;;;10.77;5.53;;;;;;;23.56;100.00;99171.94;5080906;28;20574;-92
2022/08/29 03:39:38;;;;;;;12.80;6.30;;;;;;;22.45;100.00;99163.63;5084978;28;20030;-93
2022/08/29 03:42:05;;;;;;;13.23;5.80;;;;;;;23.13;100.00;99164.53;5085404;28;20118;-92
2022/08/29 03:44:36;;;;;;;14.88;6.85;;;;;;;21.97;100.00;99157.16;5086604;28;20571;-92
2022/08/29 03:47:02;;;;;;;14.68;7.10;;;;;;;22.13;100.00;99147.47;5107807;28;20035;-92
2022/08/29 03:49:27;;;;;;;15.23;6.95;;;;;;;22.12;100.00;99151.06;5088939;28;20027;-92
2022/08/29 03:51:53;;;;;;;14.55;6.93;;;;;;;22.45;100.00;99160.97;5084645;28;20035;-92
2022/08/29 03:54:23;;;;;;;12.68;6.72;;;;;;;22.31;100.00;99151.00;5103480;28;20496;-92
2022/08/29 03:56:49;;;;;;;12.35;6.50;;;;;;;21.70;100.00;99157.56;5106734;28;20084;-92
2022/08/29 03:59:17;;;;;;;13.63;6.80;;;;;;;21.91;100.00;99150.34;5102503;28;20499;-92
2022/08/29 04:01:46;;;;;;;12.90;6.82;;;;;;;22.78;100.00;99154.81;5102707;28;20031;-91
2022/08/29 04:05:05;;;;;;;13.68;6.30;;;;;;;22.69;100.00;99163.28;5101526;28;20020;-92
2022/08/29 04:06:58;;;;;;;13.38;6.07;;;;;;;22.46;100.00;99156.50;5099059;28;20381;-91
2022/08/29 04:09:24;;;;;;;12.82;5.50;;;;;;;21.63;100.00;99153.50;5088234;28;20035;-91
2022/08/29 04:11:52;;;;;;;12.27;6.65;;;;;;;21.58;100.00;99144.91;5104271;28;20657;-91
2022/08/29 04:14:19;;;;;;;13.30;6.40;;;;;;;20.96;100.00;99138.00;5104557;28;20061;-91
2022/08/29 04:16:50;;;;;;;13.15;6.15;;;;;;;21.16;100.00;99138.84;5089494;28;20641;-92
2022/08/29 04:19:20;;;;;;;15.07;6.82;;;;;;;21.22;100.00;99143.00;5086272;28;20534;-92
2022/08/29 04:21:47;;;;;;;12.52;7.20;;;;;;;21.73;100.00;99146.81;5086569;28;20051;-92
2022/08/29 04:24:14;;;;;;;16.77;6.88;;;;;;;21.86;100.00;99155.03;5082881;28;20448;-92
2022/08/29 04:26:39;;;;;;;12.45;6.85;;;;;;;21.36;100.00;99145.88;5079484;28;20350;-92
2022/08/29 04:29:10;;;;;;;16.05;6.97;;;;;;;22.04;100.00;99153.25;5081933;28;20985;-92
2022/08/29 04:31:41;;;;;;;13.90;7.13;;;;;;;22.52;100.00;99152.66;5083664;28;20062;-91
2022/08/29 04:34:09;;;;;;;12.15;6.53;;;;;;;22.82;100.00;99152.84;5103468;28;20050;-92
2022/08/29 04:36:37;;;;;;;14.68;6.72;;;;;;;22.81;100.00;99156.44;5106500;28;20080;-91
2022/08/29 04:39:04;;;;;;;13.35;6.40;;;;;;;22.65;100.00;99154.59;5100423;28;20050;-92
2022/08/29 04:41:30;;;;;;;14.43;6.90;;;;;;;22.78;100.00;99156.59;5102900;28;20035;-91
2022/08/29 04:43:55;;;;;;;12.85;6.57;;;;;;;22.46;100.00;99162.69;5096530;28;20031;-91
2022/08/29 04:46:21;;;;;;;14.07;6.85;;;;;;;21.58;100.00;99160.81;5077933;28;20039;-91
2022/08/29 04:48:47;;;;;;;14.77;7.43;;;;;;;21.98;100.00;99161.53;5105050;28;20126;-91
2022/08/29 04:51:12;;;;;;;12.77;6.95;;;;;;;21.55;100.00;99153.84;5094698;28;20023;-91
2022/08/29 04:53:38;;;;;;;14.07;6.65;;;;;;;21.94;100.00;99166.13;5078929;28;20055;-92
2022/08/29 04:56:07;;;;;;;13.02;6.93;;;;;;;21.62;100.00;99163.25;5098380;28;20130;-92
2022/08/29 04:58:39;;;;;;;13.02;6.55;;;;;;;21.75;100.00;99168.84;5093559;28;20486;-91
2022/08/29 05:01:05;;;;;;;14.52;7.07;;;;;;;22.65;100.00;99178.53;5098433;28;20035;-91
2022/08/29 05:03:31;;;;;;;13.82;6.97;;;;;;;22.60;100.00;99177.03;5103059;28;20049;-92
2022/08/29 05:06:05;;;;;;;13.05;7.30;;;;;;;22.89;100.00;99183.50;5100671;27;20039;-92
2022/08/29 05:08:32;;;;;;;15.30;7.05;;;;;;;22.58;100.00;99185.09;5104727;28;20043;-91
2022/08/29 05:10:58;;;;;;;14.63;7.20;;;;;;;22.53;100.00;99188.94;5096790;28;20484;-91
2022/08/29 05:13:23;;;;;;;13.82;7.18;;;;;;;22.59;100.00;99188.59;5103974;28;20043;-92
2022/08/29 05:15:49;;;;;;;14.45;7.38;;;;;;;22.22;100.00;99183.34;5110511;28;20042;-93
2022/08/29 05:18:17;;;;;;;15.27;7.28;;;;;;;21.71;100.00;99183.19;5104891;28;20059;-91
2022/08/29 05:20:45;;;;;;;14.57;7.15;;;;;;;21.97;100.00;99192.53;5104232;28;20083;-91
2022/08/29 05:23:12;;;;;;;17.85;7.28;;;;;;;22.17;100.00;99191.56;5099595;28;20042;-90
2022/08/29 05:25:38;;;;;;;14.55;7.35;;;;;;;22.35;100.00;99199.56;5101947;28;20059;-90
2022/08/29 05:28:03;;;;;;;13.15;6.97;;;;;;;21.97;100.00;99202.28;5097851;28;20050;-90
2022/08/29 05:30:30;;;;;;;14.23;6.28;;;;;;;21.82;100.00;99198.59;5101065;27;20108;-89
2022/08/29 05:32:57;;;;;;;15.73;6.60;;;;;;;21.90;100.00;99200.88;5098031;28;20046;-91
2022/08/29 05:35:23;;;;;;;13.98;6.82;;;;;;;22.39;100.00;99206.44;5101858;28;20031;-90
2022/08/29 05:37:52;;;;;;;15.35;6.90;;;;;;;22.15;100.00;99206.69;5102609;28;20092;-90
2022/08/29 05:40:19;;;;;;;14.32;6.57;;;;;;;22.14;100.00;99204.13;5104450;28;20131;-90
2022/08/29 05:42:44;;;;;;;14.20;6.72;;;;;;;21.76;100.00;99199.75;5098626;28;20024;-91
2022/08/29 05:45:10;;;;;;;12.95;7.05;;;;;;;21.68;100.00;99204.56;5100839;28;20035;-90
2022/08/29 05:47:35;;;;;;;13.10;6.60;;;;;;;21.96;100.00;99203.22;5100039;28;20085;-91
2022/08/29 05:50:01;;;;;;;13.45;6.72;;;;;;;21.55;100.00;99201.63;5096070;28;20777;-90
2022/08/29 05:52:27;;;;;;;14.98;7.38;;;;;;;21.97;100.00;99205.81;5099905;28;20491;-90
2022/08/29 05:54:53;;;;;;;13.93;6.72;;;;;;;21.94;100.00;99202.44;5102318;28;20043;-90
2022/08/29 05:57:22;;;;;;;13.93;6.55;;;;;;;21.79;100.00;99204.91;5097884;28;20036;-90
2022/08/29 05:59:49;;;;;;;13.90;5.97;;;;;;;21.56;100.00;99208.66;5095650;28;20034;-92
2022/08/29 06:02:16;;;;;;;14.05;6.20;;;;;;;21.77;100.00;99213.91;5111962;27;20247;-90
2022/08/29 06:04:42;;;;;;;12.73;6.00;;;;;;;22.03;100.00;99209.09;5096900;28;20034;-90
2022/08/29 06:07:09;;;;;;;14.93;5.82;;;;;;;21.79;100.00;99199.59;5102985;28;20023;-90
2022/08/29 06:09:36;;;;;;;13.02;5.88;;;;;;;21.85;100.00;99201.13;5098373;28;20118;-91
2022/08/29 06:12:02;;;;;;;12.80;5.57;;;;;;;22.23;100.00;99208.13;5098732;28;20088;-90
2022/08/29 06:14:27;;;;;;;14.23;5.55;;;;;;;21.67;100.00;99199.31;5102303;28;20122;-89
2022/08/29 06:16:54;;;;;;;14.45;5.93;;;;;;;22.14;100.00;99209.44;5101936;28;20671;-94
2022/08/29 06:19:20;;;;;;;12.93;5.00;;;;;;;22.09;100.00;99212.31;5103808;28;20038;-92
2022/08/29 06:21:46;;;;;;;10.98;5.05;;;;;;;21.85;100.00;99214.38;5096147;28;20023;-92
2022/08/29 06:24:12;;;;;;;10.48;5.20;;;;;;;21.96;100.00;99211.19;5100849;28;20023;-92
2022/08/29 06:26:37;;;;;;;11.70;5.05;;;;;;;21.39;100.00;99214.72;5099087;28;20046;-91
2022/08/29 06:29:06;;;;;;;10.27;5.35;;;;;;;22.20;100.00;99213.56;5096917;28;20085;-91
2022/08/29 06:31:32;;;;;;;13.32;5.80;;;;;;;21.60;100.00;99217.31;5100137;28;20034;-92
2022/08/29 06:33:59;;;;;;;10.63;5.50;;;;;;;21.31;100.00;99209.78;5100830;28;20440;-92
2022/08/29 06:36:26;;;;;;;13.07;5.45;;;;;;;21.55;100.00;99206.94;5100300;28;20067;-91
2022/08/29 06:38:55;;;;;;;12.98;5.43;;;;;;;21.53;100.00;99211.47;5100201;28;20027;-92
2022/08/29 06:41:21;;;;;;;14.27;5.32;;;;;;;20.82;100.00;99209.34;5102749;28;20072;-92
2022/08/29 06:43:46;;;;;;;11.68;5.30;;;;;;;22.13;100.00;99210.38;5096408;28;20031;-93
2022/08/29 06:46:39;;;;;;;11.05;5.03;;;;;;;21.05;100.00;99205.66;5097084;28;20110;-93
2022/08/29 06:49:09;;;;;;;11.43;5.07;;;;;;;21.71;100.00;99203.56;5092225;28;20105;-94
2022/08/29 06:51:36;;;;;;;11.07;4.60;;;;;;;22.01;100.00;99213.66;5102755;28;20118;-91
2022/08/29 06:54:05;;;;;;;9.98;3.97;;;;;;;21.81;100.00;99207.50;5101998;28;20055;-94
2022/08/29 06:56:31;;;;;;;10.20;3.80;;;;;;;22.20;100.00;99213.56;5085214;28;20088;-94
2022/08/29 06:58:57;;;;;;;9.70;4.10;;;;;;;21.96;100.00;99213.84;5083575;28;20066;-92
2022/08/29 07:01:23;;;;;;;9.75;3.88;;;;;;;21.44;100.00;99211.84;5084170;28;20024;-93
2022/08/29 07:03:51;;;;;;;10.35;3.55;;;;;;;21.53;100.00;99216.78;5084631;28;20030;-94
2022/08/29 07:06:17;;;;;;;8.75;3.72;;;;;;;21.49;100.00;99209.84;5088143;28;20039;-95
2022/08/29 07:08:43;;;;;;;7.53;3.05;;;;;;;22.00;100.00;99212.75;5081930;28;20155;-92
2022/08/29 07:11:09;;;;;;;11.30;2.88;;;;;;;21.97;100.00;99211.13;5089236;28;20122;-93
2022/08/29 07:13:35;;;;;;;8.90;2.47;;;;;;;21.73;100.00;99209.66;5089026;28;20202;-92
2022/08/29 07:16:01;;;;;;;8.07;2.75;;;;;;;21.91;100.00;99221.19;5087950;28;20042;-93
2022/08/29 07:18:28;;;;;;;8.05;2.60;;;;;;;22.63;100.00;99216.75;5108949;28;20027;-93
2022/08/29 07:20:53;;;;;;;8.73;2.55;;;;;;;22.47;100.00;99219.34;5094745;28;20035;-91
2022/08/29 07:23:20;;;;;;;7.93;2.50;;;;;;;22.06;100.00;99224.88;5093308;28;20027;-93
2022/08/29 07:25:45;;;;;;;8.27;2.30;;;;;;;;;;5087296;28;20145;-92
2022/08/29 07:28:12;;;;;;;11.40;2.58;;;;;;;22.31;100.00;99224.53;5084498;28;20505;-91
2022/08/29 07:30:37;;;;;;;9.50;2.70;;;;;;;23.42;100.00;99231.28;5089248;28;20131;-95
2022/08/29 07:33:03;;;;;;;6.10;2.10;;;;;;;23.40;100.00;99236.69;5103275;28;20161;-92
2022/08/29 07:35:30;;;;;;;7.82;2.50;;;;;;;22.45;100.00;99232.72;5084378;28;20387;-95
2022/08/29 07:38:02;;;;;;;8.60;2.20;;;;;;;22.15;100.00;99232.41;5105941;28;20054;-91
2022/08/29 07:40:28;;;;;;;8.45;2.30;;;;;;;22.15;100.00;99238.56;5098100;28;20024;-92
2022/08/29 07:42:54;;;;;;;9.43;2.25;;;;;;;22.17;100.00;99234.06;5090324;28;20042;-95
2022/08/29 07:45:23;;;;;;;6.85;2.15;;;;;;;22.30;100.00;99236.13;5092965;28;20029;-95
2022/08/29 07:47:48;;;;;;;8.57;2.13;;;;;;;22.06;100.00;99230.19;5106673;28;20035;-94
2022/08/29 07:50:14;;;;;;;8.23;2.20;;;;;;;21.79;100.00;99226.13;5090382;28;20521;-93
2022/08/29 07:52:39;;;;;;;7.25;2.10;;;;;;;21.49;100.00;99225.78;5110335;28;20429;-92
2022/08/29 07:55:06;;;;;;;6.18;1.90;;;;;;;21.69;100.00;99221.38;5101912;28;22159;-92
2022/08/29 07:57:32;;;;;;;9.43;2.05;;;;;;;21.67;100.00;99224.09;5105762;28;20031;-92
2022/08/29 08:00:00;;;;;;;6.50;1.90;;;;;;;21.12;100.00;99225.66;5103197;28;20032;-92
2022/08/29 08:02:26;;;;;;;7.70;2.20;;;;;;;22.04;100.00;99224.97;5105489;28;20117;-92
2022/08/29 08:04:51;;;;;;;8.05;1.90;;;;;;;21.91;100.00;99230.00;5110060;28;20071;-92
2022/08/29 08:07:24;;;;;;;7.13;2.03;;;;;;;22.39;100.00;99230.34;5106126;28;20081;-91
2022/08/29 08:09:49;;;;;;;7.05;1.95;;;;;;;21.65;100.00;99229.44;5105455;28;20035;-93
2022/08/29 08:12:15;;;;;;;7.20;1.90;;;;;;;22.23;100.00;99232.91;5104940;28;20111;-91
2022/08/29 08:14:41;;;;;;;7.22;2.13;;;;;;;21.23;100.00;99233.13;5104105;28;20113;-92
2022/08/29 08:17:15;;;;;;;8.60;2.22;;;;;;;21.89;100.00;99228.38;5109935;28;20134;-94
2022/08/29 08:19:40;;;;;;;7.05;1.98;;;;;;;22.10;100.00;99232.66;5105401;28;20046;-93
2022/08/29 08:22:06;;;;;;;7.45;1.90;;;;;;;21.45;100.00;99229.50;5109221;28;20783;-93
2022/08/29 08:24:31;;;;;;;8.73;2.58;;;;;;;21.42;100.00;99225.19;5113233;28;20027;-93
2022/08/29 08:26:57;;;;;;;7.03;1.70;;;;;;;21.13;100.00;99230.03;5111511;28;20020;-93
2022/08/29 08:29:23;;;;;;;7.90;1.75;;;;;;;22.12;100.00;99228.09;5107600;28;20617;-92
2022/08/29 08:31:58;;;;;;;8.90;2.00;;;;;;;21.01;100.00;99237.69;5099325;28;20833;-93
2022/08/29 08:34:24;;;;;;;6.35;1.60;;;;;;;21.14;100.00;99229.13;5103516;28;20043;-93
2022/08/29 08:36:50;;;;;;;6.93;1.70;;;;;;;21.24;100.00;99239.28;5109426;28;20102;-92
2022/08/29 08:39:16;;;;;;;6.20;1.90;;;;;;;20.54;100.00;99237.00;5102587;28;20241;-92
2022/08/29 08:41:56;;;;;;;8.10;1.95;;;;;;;21.20;100.00;99241.22;5104415;28;20095;-92
2022/08/29 08:45:12;;;;;;;8.15;2.00;;;;;;;21.30;100.00;99252.28;5100210;28;20027;-93
2022/08/29 08:47:41;;;;;;;9.02;2.10;;;;;;;21.61;100.00;99251.78;5099385;28;20035;-93
2022/08/29 08:50:37;;;;;;;9.23;1.90;;;;;;;22.55;100.00;99240.25;5109799;28;20048;-92
2022/08/29 08:53:06;;;;;;;5.93;1.73;;;;;;;21.55;100.00;99251.19;5107426;28;20107;-93
2022/08/29 08:55:41;;;;;;;7.38;1.90;;;;;;;21.72;100.00;99253.91;5109732;28;20036;-93
2022/08/29 08:58:33;;;;;;;7.13;1.92;;;;;;;21.90;100.00;99257.50;5109653;28;20035;-90
2022/08/29 09:01:49;;;;;;;7.65;1.58;;;;;;;22.13;100.00;99253.75;5105538;28;20100;-91
2022/08/29 09:04:50;;;;;;;6.25;1.50;;;;;;;21.70;100.00;99249.59;5105992;28;20077;-91
2022/08/29 09:07:48;;;;;;;8.27;1.60;;;;;;;21.58;100.00;99245.75;5104827;28;20059;-91
2022/08/29 09:10:30;;;;;;;6.70;1.52;;;;;;;22.02;100.00;99256.06;5108197;28;20031;-91
2022/08/29 09:13:26;;;;;;;5.60;1.30;;;;;;;22.38;100.00;99251.69;5109805;28;20069;-91
2022/08/29 09:15:54;;;;;;;6.78;1.42;;;;;;;21.53;100.00;99263.66;5107459;28;20543;-92
2022/08/29 09:18:24;;;;;;;5.97;1.60;;;;;;;21.00;100.00;99262.47;5109354;28;20100;-94
2022/08/29 09:20:50;;;;;;;5.43;1.40;;;;;;;22.27;100.00;99263.69;5104593;28;20034;-94
2022/08/29 09:23:36;;;;;;;6.85;1.60;;;;;;;22.48;100.00;99251.16;5111562;28;20036;-91
2022/08/29 09:26:02;;;;;;;5.15;1.30;;;;;;;22.28;100.00;99252.13;5100498;28;20027;-91
2022/08/29 09:28:27;;;;;;;7.60;1.60;;;;;;;21.46;100.00;99257.75;5101050;28;20510;-88
2022/08/29 09:34:02;;;;;;;8.85;1.75;;;;;;;21.85;100.00;99262.19;5105882;28;20046;-88
2022/08/29 09:36:47;;;;;;;6.55;1.50;;;;;;;22.17;100.00;99260.63;5102534;28;20036;-88
2022/08/29 09:39:28;;;;;;;9.55;1.85;;;;;;;23.14;100.00;99267.34;5099614;28;20020;-89
2022/08/29 09:42:12;;;;;;;7.50;1.70;;;;;;;23.15;100.00;99264.59;5108965;28;20035;-89
2022/08/29 09:44:39;;;;;;;6.25;1.80;;;;;;;22.50;100.00;99267.91;5097061;28;20031;-89
2022/08/29 09:47:23;;;;;;;7.32;1.60;;;;;;;22.46;100.00;99273.44;5107956;28;20041;-88
2022/08/29 09:50:24;;;;;;;5.47;1.60;;;;;;;22.41;100.00;99272.81;5100675;27;20195;-89
2022/08/29 09:52:56;;;;;;;6.57;1.50;;;;;;;22.22;100.00;99265.69;5105470;28;20039;-89
2022/08/29 09:55:31;;;;;;;7.63;2.00;;;;;;;22.37;100.00;99266.78;5091674;28;20064;-90
2022/08/29 09:58:23;;;;;;;6.10;1.67;;;;;;;22.60;100.00;99265.66;5090644;28;20047;-90
2022/08/29 10:01:10;;;;;;;7.68;2.28;;;;;;;22.91;100.00;99264.06;5092487;28;20043;-90
2022/08/29 10:03:40;;;;;;;6.78;2.10;;;;;;;23.02;100.00;99266.19;5105232;28;20038;-88
2022/08/29 10:06:15;;;;;;;5.68;1.90;;;;;;;22.50;100.00;99273.22;5105670;28;20084;-88
2022/08/29 10:08:42;;;;;;;6.97;2.20;;;;;;;22.42;100.00;99266.53;5103554;28;20797;-89
2022/08/29 10:11:27;;;;;;;6.10;1.90;;;;;;;22.32;100.00;99268.75;5108082;28;20084;-90
2022/08/29 10:13:56;;;;;;;7.57;2.03;;;;;;;22.29;100.00;99268.94;5104639;28;20039;-89
2022/08/29 10:16:38;;;;;;;5.90;1.92;;;;;;;22.14;100.00;99268.75;5099979;28;20035;-90
2022/08/29 10:19:33;;;;;;;7.28;2.55;;;;;;;22.30;100.00;99268.00;5093814;28;20080;-88
2022/08/29 10:22:32;;;;;;;9.75;3.67;;;;;;;22.42;100.00;99266.53;5076949;28;20031;-88
2022/08/29 10:25:16;;;;;;;8.85;4.40;;;;;;;22.97;100.00;99276.19;5102841;28;20800;-89
2022/08/29 10:28:06;;;;;;;9.95;3.25;;;;;;;22.82;100.00;99264.53;5097210;28;20778;-90
2022/08/29 10:30:48;;;;;;;8.43;3.10;;;;;;;23.32;100.00;99276.16;5101552;28;20552;-88
2022/08/29 10:33:55;;;;;;;7.53;2.40;;;;;;;23.49;100.00;99269.91;5095769;28;20054;-88
2022/08/29 10:36:33;;;;;;;8.82;1.83;;;;;;;23.03;100.00;99273.19;5105626;28;20036;-88
2022/08/29 10:39:34;;;;;;;6.63;1.88;;;;;;;22.32;100.00;99267.00;5101778;28;20035;-90
2022/08/29 10:42:09;;;;;;;7.13;1.98;;;;;;;23.48;100.00;99270.84;5022025;28;20053;-88
2022/08/29 10:45:13;;;;;;;5.97;1.80;;;;;;;23.07;100.00;99276.56;5008066;28;20076;-91
2022/08/29 10:47:40;;;;;;;8.68;2.28;;;;;;;23.91;100.00;99279.22;5004106;28;20033;-88
2022/08/29 10:50:13;;;;;;;6.05;1.80;;;;;;;24.00;100.00;99273.34;5010708;28;20857;-87
2022/08/29 10:52:47;;;;;;;6.03;1.50;;;;;;;23.54;100.00;99275.03;5011089;28;20045;-87
2022/08/29 10:55:26;;;;;;;7.38;1.60;;;;;;;22.58;100.00;99280.78;5018120;28;20124;-89
2022/08/29 10:58:19;;;;;;;7.78;1.88;;;;;;;22.23;100.00;99275.41;5018847;28;20195;-88
2022/08/29 11:00:53;;;;;;;;;;;;;;;22.38;100.00;99280.91;5003218;28;20076;-87
2022/08/29 11:03:41;;;;;;;5.53;1.40;;;;;;;22.70;100.00;99271.34;5016907;28;19959;-87
2022/08/29 11:06:16;;;;;;;7.50;1.88;;;;;;;23.10;100.00;99271.94;4997580;28;20519;-92
2022/08/29 11:08:49;;;;;;;6.50;1.65;;;;;;;23.07;100.00;99271.25;5015148;28;20033;-87
2022/08/29 11:11:19;;;;;;;;;;;;;;;22.67;100.00;99269.72;5002269;28;20037;-88
2022/08/29 11:13:51;;;;;;;5.57;1.70;;;;;;;24.10;100.00;99264.84;4995927;28;19922;-87
2022/08/29 11:16:20;;;;;;;7.25;1.85;;;;;;;22.79;100.00;99267.34;5012632;28;20041;-90
2022/08/29 11:19:04;;;;;;;7.22;1.90;;;;;;;23.68;100.00;99270.63;5068027;28;20039;-88
2022/08/29 11:21:56;;;;;;;8.07;1.83;;;;;;;22.89;100.00;99268.59;5100713;28;20034;-89
2022/08/29 11:24:29;;;;;;;8.93;2.00;;;;;;;23.46;100.00;99262.97;5099563;28;20106;-89
2022/08/29 11:26:54;;;;;;;;;;;;;;;22.76;100.00;99265.72;5100610;28;20027;-89
2022/08/29 11:30:05;;;;;;;6.65;1.80;;;;;;;23.77;100.00;99265.75;5102804;28;19919;-93
2022/08/29 11:33:02;;;;;;;7.22;1.92;;;;;;;23.09;100.00;99266.69;5024078;28;20050;-91
2022/08/29 11:35:48;;;;;;;6.70;1.83;;;;;;;23.27;100.00;99265.78;5006654;28;20033;-92
2022/08/29 11:38:34;;;;;;;7.15;1.50;;;;;;;24.50;100.00;99260.72;5026616;28;20037;-90
2022/08/29 11:41:34;;;;;;;7.20;2.08;;;;;;;23.76;100.00;99253.38;5008237;28;20563;-92
2022/08/29 11:44:26;;;;;;;8.88;2.03;;;;;;;25.00;100.00;99253.34;5006784;28;20048;-90
2022/08/29 11:46:53;;;;;;;6.28;2.03;;;;;;;23.93;100.00;99250.66;5022948;28;20627;-90